Time;durP1;ratioP1;P1;durP2;ratioP2;P2;SDS_P1;SDS_P2;PMS_P1;PMS_P2;Temp;Humidity;BMP_temperature;BMP_pressure;BME280_temperature;BME280_humidity;BME280_pressure;Samples;Min_cycle;Max_cycle;Signal;HPM_P1;HPM_P2
2022/06/18 04:01:40;;;;;;;6.40;3.97;;;19.20;99.90;;;;;;5488984;23;21000;-68
2022/06/18 04:04:07;;;;;;;5.03;3.20;;;19.20;99.90;;;;;;5016923;28;20448;-67
2022/06/18 04:06:34;;;;;;;3.33;3.13;;;19.30;99.90;;;;;;5016527;28;20947;-67
2022/06/18 04:09:01;;;;;;;4.63;3.43;;;19.40;99.90;;;;;;5016757;28;20483;-68
2022/06/18 04:11:28;;;;;;;3.50;3.30;;;19.40;99.90;;;;;;5016815;28;20523;-68
2022/06/18 04:13:55;;;;;;;5.00;4.00;;;19.50;99.90;;;;;;5016828;28;20812;-67
2022/06/18 04:16:23;;;;;;;3.70;3.50;;;19.60;99.90;;;;;;5016637;28;20456;-68
2022/06/18 04:18:51;;;;;;;4.40;3.90;;;19.60;99.90;;;;;;5016391;28;20568;-67
2022/06/18 04:21:18;;;;;;;4.13;3.83;;;19.60;99.90;;;;;;5016435;28;20473;-67
2022/06/18 04:23:45;;;;;;;6.33;4.57;;;19.60;99.90;;;;;;5016282;28;20453;-66
2022/06/18 04:26:13;;;;;;;4.20;3.47;;;19.60;99.90;;;;;;5016579;28;20457;-67
2022/06/18 04:28:40;;;;;;;5.00;4.10;;;19.50;99.90;;;;;;5016521;28;20511;-67
2022/06/18 04:31:07;;;;;;;4.30;3.90;;;19.50;99.90;;;;;;5015887;28;20833;-67
2022/06/18 04:33:34;;;;;;;5.70;4.10;;;19.50;99.90;;;;;;5016153;28;20840;-67
2022/06/18 04:36:02;;;;;;;5.10;3.90;;;19.50;99.90;;;;;;5015952;28;20854;-68
2022/06/18 04:38:29;;;;;;;4.20;3.80;;;19.50;99.90;;;;;;5015931;28;20936;-67
2022/06/18 04:40:56;;;;;;;4.30;4.00;;;19.50;99.90;;;;;;5016807;28;20473;-66
2022/06/18 04:43:23;;;;;;;4.27;3.93;;;19.50;99.90;;;;;;5015789;28;20932;-68
2022/06/18 04:45:50;;;;;;;4.30;4.00;;;19.50;99.90;;;;;;5016279;28;20457;-67
2022/06/18 04:48:16;;;;;;;4.07;3.77;;;19.50;99.90;;;;;;5015853;28;20817;-67
2022/06/18 04:50:43;;;;;;;7.60;3.77;;;19.50;99.90;;;;;;5015953;28;20530;-67
2022/06/18 04:53:12;;;;;;;3.87;3.67;;;19.60;99.90;;;;;;5016347;28;20477;-67
2022/06/18 04:55:38;;;;;;;5.10;4.00;;;19.70;99.90;;;;;;5030698;28;20457;-67
2022/06/18 04:58:05;;;;;;;4.23;3.43;;;19.70;99.90;;;;;;5020026;28;20456;-67
2022/06/18 05:00:32;;;;;;;7.33;3.80;;;19.70;99.90;;;;;;5016085;28;20488;-67
2022/06/18 05:02:59;;;;;;;5.13;4.37;;;19.80;99.90;;;;;;5015150;28;20437;-67
2022/06/18 05:05:27;;;;;;;4.20;3.80;;;19.80;99.90;;;;;;5015993;28;20464;-68
2022/06/18 05:07:54;;;;;;;4.33;4.03;;;19.90;99.90;;;;;;5015291;28;20453;-67
2022/06/18 05:10:23;;;;;;;4.00;3.70;;;20.00;99.90;;;;;;5015827;28;20457;-68
2022/06/18 05:12:50;;;;;;;4.20;3.80;;;20.10;99.90;;;;;;5015041;28;20472;-67
2022/06/18 05:15:17;;;;;;;4.20;3.90;;;20.20;99.90;;;;;;5015253;28;20832;-67
2022/06/18 05:17:45;;;;;;;5.67;4.33;;;20.30;99.90;;;;;;5015408;28;20463;-68
2022/06/18 05:20:15;;;;;;;4.40;4.00;;;20.30;99.90;;;;;;5014901;28;20861;-68
2022/06/18 05:22:42;;;;;;;7.13;4.07;;;20.40;99.90;;;;;;5015549;28;20444;-68
2022/06/18 05:25:10;;;;;;;4.60;3.87;;;20.40;99.90;;;;;;5015253;28;20460;-68
2022/06/18 05:27:39;;;;;;;3.80;3.60;;;20.60;99.90;;;;;;5015238;28;20856;-68
2022/06/18 05:30:07;;;;;;;4.67;4.00;;;20.70;99.90;;;;;;5015340;28;20457;-68
2022/06/18 05:32:34;;;;;;;4.37;4.07;;;20.80;99.90;;;;;;5014985;28;20554;-68
2022/06/18 05:35:01;;;;;;;3.83;3.63;;;20.80;99.90;;;;;;5014825;28;20813;-68
2022/06/18 05:37:30;;;;;;;7.80;3.63;;;20.90;99.90;;;;;;5015225;28;20479;-68
2022/06/18 05:39:57;;;;;;;5.03;3.50;;;21.00;99.90;;;;;;5015252;28;20453;-67
2022/06/18 05:42:24;;;;;;;4.50;4.07;;;21.10;99.90;;;;;;5015071;28;20831;-68
2022/06/18 05:44:54;;;;;;;4.50;4.17;;;21.10;99.90;;;;;;5014990;28;20461;-67
2022/06/18 05:47:24;;;;;;;4.90;4.43;;;21.10;99.90;;;;;;5014996;28;20457;-67
2022/06/18 05:49:51;;;;;;;4.20;3.93;;;21.20;99.90;;;;;;5015677;28;20765;-67
2022/06/18 05:52:19;;;;;;;9.00;3.83;;;21.30;99.90;;;;;;5014339;28;21018;-68
2022/06/18 05:54:46;;;;;;;4.83;4.33;;;21.40;99.90;;;;;;5015349;28;20821;-67
2022/06/18 05:57:13;;;;;;;4.70;4.30;;;21.60;99.90;;;;;;5014985;28;20460;-68
2022/06/18 05:59:40;;;;;;;4.20;3.53;;;21.70;99.90;;;;;;5015496;28;20449;-68
2022/06/18 06:02:12;;;;;;;6.40;4.67;;;21.80;99.90;;;;;;5015316;28;20477;-67
2022/06/18 06:04:39;;;;;;;4.33;4.00;;;22.00;99.90;;;;;;5014503;28;20912;-67
2022/06/18 06:07:06;;;;;;;4.17;3.97;;;22.00;99.90;;;;;;5014770;28;20540;-67
2022/06/18 06:12:17;;;;;;;4.40;4.10;;;22.30;99.90;;;;;;5014454;28;20507;-67
2022/06/18 06:14:44;;;;;;;3.97;3.60;;;22.40;99.90;;;;;;5014321;28;20460;-67
2022/06/18 06:17:15;;;;;;;3.70;3.50;;;22.50;99.90;;;;;;5014337;28;20455;-67
2022/06/18 06:19:42;;;;;;;4.60;4.20;;;22.80;99.90;;;;;;5014339;28;20437;-67
2022/06/18 06:22:09;;;;;;;4.20;3.90;;;22.90;99.50;;;;;;5014258;28;20472;-67
2022/06/18 06:24:36;;;;;;;5.03;3.50;;;23.20;98.50;;;;;;5014393;28;20445;-66
2022/06/18 06:27:03;;;;;;;3.93;3.60;;;23.30;98.40;;;;;;5014375;28;20488;-66
2022/06/18 06:29:29;;;;;;;4.20;3.60;;;23.60;97.20;;;;;;5014228;28;20483;-67
2022/06/18 06:31:56;;;;;;;4.50;4.10;;;23.70;97.20;;;;;;5013973;28;20472;-66
2022/06/18 06:34:24;;;;;;;4.00;3.67;;;24.10;96.60;;;;;;5014496;28;20877;-69
2022/06/18 06:36:51;;;;;;;4.07;3.67;;;24.30;96.20;;;;;;5014306;28;20453;-68
2022/06/18 06:39:18;;;;;;;4.30;3.90;;;24.60;95.70;;;;;;5014152;28;20453;-67
2022/06/18 06:41:45;;;;;;;4.43;4.13;;;24.90;95.60;;;;;;5014063;28;20477;-67
2022/06/18 06:44:12;;;;;;;3.90;3.60;;;25.20;94.70;;;;;;5014013;28;20816;-67
2022/06/18 06:46:39;;;;;;;3.90;3.60;;;25.50;93.60;;;;;;5013638;28;20944;-68
2022/06/18 06:49:06;;;;;;;3.70;3.50;;;25.80;91.70;;;;;;5014166;28;20456;-68
2022/06/18 06:51:37;;;;;;;3.47;3.17;;;26.00;91.40;;;;;;5013880;28;20477;-68
2022/06/18 06:54:04;;;;;;;3.47;3.27;;;26.30;90.50;;;;;;5013976;28;20515;-68
2022/06/18 06:59:15;;;;;;;7.07;3.70;;;26.80;89.00;;;;;;5014341;28;20416;-68
2022/06/18 07:01:42;;;;;;;3.70;3.50;;;27.10;86.10;;;;;;5013535;28;20507;-68
2022/06/18 07:04:12;;;;;;;4.60;3.30;;;27.50;81.20;;;;;;5013858;28;20457;-68
2022/06/18 07:06:41;;;;;;;5.60;4.07;;;27.60;79.30;;;;;;5013823;28;20448;-68
2022/06/18 07:09:09;;;;;;;4.00;3.60;;;28.00;77.90;;;;;;5013824;28;20453;-68
2022/06/18 07:11:37;;;;;;;3.90;3.70;;;28.50;77.60;;;;;;5013698;28;20975;-68
2022/06/18 07:14:03;;;;;;;2.40;2.30;;;29.00;75.90;;;;;;5013537;28;20477;-66
2022/06/18 07:16:30;;;;;;;5.27;4.77;;;29.60;72.50;;;;;;5013683;28;20453;-68
2022/06/18 07:18:58;;;;;;;3.80;3.50;;;30.10;71.10;;;;;;5013594;28;20457;-68
2022/06/18 07:21:25;;;;;;;6.73;3.80;;;30.60;67.10;;;;;;5013592;28;20555;-67
2022/06/18 07:23:53;;;;;;;4.93;3.60;;;31.10;65.90;;;;;;5013612;28;20475;-68
2022/06/18 07:26:22;;;;;;;3.40;3.10;;;31.50;65.40;;;;;;5015565;28;20467;-68
2022/06/18 07:28:48;;;;;;;6.90;3.90;;;31.80;62.40;;;;;;5017348;28;20455;-68
2022/06/18 07:31:18;;;;;;;6.43;3.57;;;31.90;60.60;;;;;;5016771;28;21006;-68
2022/06/18 07:33:47;;;;;;;4.10;3.00;;;32.10;60.80;;;;;;5017416;28;20480;-68
2022/06/18 07:36:13;;;;;;;3.20;3.00;;;32.30;63.10;;;;;;5017102;28;20878;-68
2022/06/18 07:38:40;;;;;;;3.23;2.93;;;32.60;60.20;;;;;;5017432;28;20452;-68
2022/06/18 07:41:08;;;;;;;3.60;3.30;;;33.00;58.40;;;;;;5017223;28;20468;-68
2022/06/18 07:43:38;;;;;;;3.37;3.17;;;33.30;58.80;;;;;;5017287;28;20436;-68
2022/06/18 07:46:06;;;;;;;3.40;3.03;;;33.60;56.80;;;;;;5018026;28;20461;-67
2022/06/18 07:48:34;;;;;;;3.17;3.07;;;34.00;57.10;;;;;;5017249;28;20815;-69
2022/06/18 07:51:01;;;;;;;3.20;2.90;;;34.30;55.90;;;;;;5016846;28;20982;-69
2022/06/18 07:53:28;;;;;;;2.97;2.70;;;34.70;53.10;;;;;;5016986;28;20479;-68
2022/06/18 07:55:56;;;;;;;2.87;2.70;;;34.90;54.10;;;;;;5017133;28;20463;-68
2022/06/18 07:58:26;;;;;;;3.50;3.20;;;35.00;52.10;;;;;;5019505;28;20463;-68
2022/06/18 08:00:54;;;;;;;2.70;2.60;;;35.50;52.30;;;;;;5025757;28;20476;-69
2022/06/18 08:03:20;;;;;;;2.93;2.73;;;35.50;50.80;;;;;;5019400;28;20471;-68
2022/06/18 08:05:48;;;;;;;4.50;3.20;;;35.80;49.90;;;;;;5017306;28;20456;-66
2022/06/18 08:08:16;;;;;;;4.40;2.60;;;35.90;49.60;;;;;;5016854;28;20524;-67
2022/06/18 08:10:49;;;;;;;2.77;2.47;;;36.20;47.50;;;;;;5016652;28;20499;-68
2022/06/18 08:13:17;;;;;;;2.90;2.80;;;36.40;47.60;;;;;;5016584;28;20464;-68
2022/06/18 08:15:45;;;;;;;2.83;2.63;;;36.60;46.60;;;;;;5016679;28;20560;-68
2022/06/18 08:18:12;;;;;;;2.23;2.13;;;36.60;47.10;;;;;;5016608;28;20452;-68
2022/06/18 08:20:41;;;;;;;3.30;3.00;;;36.90;46.40;;;;;;5016488;28;20878;-68
2022/06/18 08:23:08;;;;;;;4.00;2.60;;;37.10;45.60;;;;;;5016476;28;20459;-68
2022/06/18 08:25:38;;;;;;;2.60;2.47;;;37.00;47.60;;;;;;5016406;28;20452;-68
2022/06/18 08:28:07;;;;;;;2.80;2.60;;;37.20;46.30;;;;;;5016292;28;21005;-68
2022/06/18 08:30:33;;;;;;;2.83;2.60;;;37.60;45.40;;;;;;5016185;28;20504;-68
2022/06/18 08:33:01;;;;;;;2.20;2.07;;;37.60;46.10;;;;;;5015870;28;20456;-68
2022/06/18 08:35:29;;;;;;;2.13;2.03;;;37.70;45.00;;;;;;5016375;28;20459;-69
2022/06/18 08:37:55;;;;;;;2.60;2.40;;;37.70;44.90;;;;;;5016583;28;20452;-68
2022/06/18 08:40:37;;;;;;;2.37;2.20;;;37.80;45.20;;;;;;5016312;28;20456;-68
2022/06/18 08:43:21;;;;;;;2.43;2.33;;;38.10;43.90;;;;;;5016393;28;20448;-68
2022/06/18 08:45:56;;;;;;;3.30;2.07;;;38.50;43.00;;;;;;5016235;28;20441;-68
2022/06/18 08:48:50;;;;;;;2.30;2.10;;;38.50;40.40;;;;;;5016116;28;20436;-68
2022/06/18 08:51:26;;;;;;;2.40;2.03;;;38.70;41.50;;;;;;5016033;28;20507;-68
2022/06/18 08:54:07;;;;;;;2.30;2.20;;;39.00;40.30;;;;;;5015655;28;20866;-68
2022/06/18 08:56:39;;;;;;;2.53;2.40;;;39.30;41.50;;;;;;5016042;28;20189;-68
2022/06/18 08:59:15;;;;;;;2.27;2.10;;;39.40;40.60;;;;;;5015842;28;20186;-68
2022/06/18 09:01:47;;;;;;;2.60;2.40;;;39.30;41.10;;;;;;5015379;28;20712;-69
2022/06/18 09:04:23;;;;;;;2.90;2.70;;;39.50;41.50;;;;;;5015695;28;20699;-68
2022/06/18 09:07:10;;;;;;;2.83;2.63;;;39.70;41.00;;;;;;5015896;28;20293;-68
2022/06/18 09:09:47;;;;;;;2.35;1.80;;;39.80;41.20;;;;;;5014844;28;20455;-69
2022/06/18 09:12:20;;;;;;;3.50;1.93;;;39.80;39.60;;;;;;5015724;28;20220;-69
2022/06/18 09:14:51;;;;;;;2.20;2.10;;;40.00;38.90;;;;;;5015649;28;20210;-69
2022/06/18 09:17:24;;;;;;;2.10;2.00;;;39.90;39.30;;;;;;5015719;28;20182;-68
2022/06/18 09:19:59;;;;;;;2.60;2.00;;;40.00;38.00;;;;;;5015623;28;20186;-69
2022/06/18 09:22:27;;;;;;;2.00;1.90;;;40.00;38.70;;;;;;5015596;28;20213;-69
2022/06/18 09:24:59;;;;;;;2.30;2.20;;;40.20;39.60;;;;;;5015861;28;20193;-69
2022/06/18 09:27:30;;;;;;;2.10;2.00;;;40.50;38.70;;;;;;5015787;28;20184;-69
2022/06/18 09:30:02;;;;;;;2.25;1.67;;;40.60;38.20;;;;;;5016137;28;20654;-70
2022/06/18 09:32:35;;;;;;;3.72;2.78;;;41.10;36.40;;;;;;5019693;28;20240;-70
2022/06/18 09:35:12;;;;;;;1.90;1.90;;;41.20;37.40;;;;;;5015442;28;20206;-69
2022/06/18 09:37:43;;;;;;;2.90;1.88;;;41.60;35.60;;;;;;5015716;28;20185;-69
2022/06/18 09:40:16;;;;;;;1.98;1.88;;;41.60;35.40;;;;;;5015350;28;20189;-69
2022/06/18 09:42:49;;;;;;;2.50;2.15;;;41.40;36.20;;;;;;5015378;28;20236;-69
2022/06/18 09:45:20;;;;;;;2.65;2.40;;;41.60;36.00;;;;;;5015978;28;20235;-71
2022/06/18 09:47:49;;;;;;;2.55;1.73;;;41.60;37.90;;;;;;5014894;28;20181;-69
2022/06/18 09:50:22;;;;;;;2.03;1.92;;;41.80;35.60;;;;;;5014326;28;20667;-69
2022/06/18 09:52:52;;;;;;;3.10;2.20;;;41.90;36.60;;;;;;5014918;28;20193;-69
2022/06/18 09:55:24;;;;;;;2.42;1.65;;;41.80;34.40;;;;;;5014884;28;20201;-69
2022/06/18 09:57:55;;;;;;;3.38;1.52;;;41.90;35.20;;;;;;5014871;28;20182;-69
2022/06/18 10:00:25;;;;;;;2.72;1.98;;;41.80;33.10;;;;;;5014528;28;20202;-69
2022/06/18 10:02:57;;;;;;;2.40;2.30;;;42.10;33.40;;;;;;5014795;28;20186;-69
2022/06/18 10:08:15;;;;;;;1.98;1.70;;;42.20;34.50;;;;;;5014845;28;20305;-69
2022/06/18 10:10:48;;;;;;;1.48;1.38;;;42.20;33.60;;;;;;5015327;28;20224;-69
2022/06/18 10:13:21;;;;;;;1.70;1.60;;;41.60;35.80;;;;;;5014699;28;20184;-69
2022/06/18 10:15:48;;;;;;;1.77;1.67;;;41.80;36.00;;;;;;5014483;28;20189;-69
2022/06/18 10:18:29;;;;;;;1.90;1.80;;;42.10;32.30;;;;;;5014372;28;20197;-69
2022/06/18 10:21:04;;;;;;;1.48;1.40;;;42.20;33.30;;;;;;5014637;28;20229;-69
2022/06/18 10:23:41;;;;;;;3.78;3.50;;;42.00;33.30;;;;;;5014451;28;20185;-69
2022/06/18 10:26:27;;;;;;;2.75;2.65;;;41.50;32.60;;;;;;5014461;28;20188;-69
2022/06/18 10:29:02;;;;;;;2.65;2.40;;;41.60;33.50;;;;;;5014165;28;20197;-69
2022/06/18 10:31:42;;;;;;;1.98;1.60;;;41.70;32.70;;;;;;5014236;28;20251;-69
2022/06/18 10:34:20;;;;;;;2.53;1.30;;;41.80;31.60;;;;;;5013983;28;20668;-69
2022/06/18 10:36:55;;;;;;;2.17;1.40;;;41.80;31.30;;;;;;5014246;28;20188;-69
2022/06/18 10:39:29;;;;;;;1.48;1.30;;;41.70;30.70;;;;;;5014303;28;20185;-69
2022/06/18 10:42:11;;;;;;;1.45;1.35;;;41.70;31.30;;;;;;5014133;28;20229;-69
2022/06/18 10:44:54;;;;;;;2.67;1.65;;;41.90;31.30;;;;;;5014259;28;20178;-69
2022/06/18 10:47:22;;;;;;;3.05;1.70;;;42.00;30.70;;;;;;5014383;28;20197;-69
2022/06/18 10:50:00;;;;;;;1.65;1.55;;;41.80;30.60;;;;;;5014181;28;20193;-70
2022/06/18 10:52:29;;;;;;;3.38;1.88;;;41.90;32.20;;;;;;5014054;28;20224;-69
2022/06/18 10:55:07;;;;;;;1.98;1.88;;;41.80;32.50;;;;;;5013932;28;20226;-69
2022/06/18 10:57:34;;;;;;;2.13;1.75;;;41.80;32.30;;;;;;5013984;28;20217;-69
2022/06/18 11:00:11;;;;;;;4.38;2.15;;;41.70;32.40;;;;;;5014071;28;20205;-70
2022/06/18 11:02:40;;;;;;;2.38;2.17;;;41.60;34.50;;;;;;5017954;28;20223;-70
2022/06/18 11:05:19;;;;;;;2.38;1.90;;;41.50;33.50;;;;;;5018092;28;20205;-69
2022/06/18 11:07:51;;;;;;;2.55;1.90;;;41.20;32.80;;;;;;5018551;28;20707;-69
2022/06/18 11:10:27;;;;;;;1.53;1.53;;;41.10;33.10;;;;;;5018376;28;20182;-69
2022/06/18 11:12:56;;;;;;;2.37;1.70;;;40.70;32.80;;;;;;5018941;28;20185;-69
2022/06/18 11:15:27;;;;;;;3.70;1.57;;;40.10;33.90;;;;;;5021632;28;20213;-69
2022/06/18 11:17:53;;;;;;;1.80;1.70;;;40.00;33.30;;;;;;5020459;28;20182;-69
2022/06/18 11:20:23;;;;;;;1.70;1.60;;;40.00;32.20;;;;;;5018400;28;20247;-72
2022/06/18 11:22:57;;;;;;;1.80;1.70;;;40.00;33.50;;;;;;5018230;28;20232;-70
2022/06/18 11:25:28;;;;;;;3.17;1.37;;;39.60;33.90;;;;;;5017865;28;20188;-68
2022/06/18 11:27:58;;;;;;;1.73;1.60;;;39.30;33.90;;;;;;5017626;28;20519;-68
2022/06/18 11:30:30;;;;;;;2.00;1.30;;;39.10;32.00;;;;;;5017710;28;20448;-68
2022/06/18 11:32:57;;;;;;;2.60;1.53;;;38.70;30.40;;;;;;5027975;28;20437;-69
2022/06/18 11:35:28;;;;;;;1.40;1.30;;;38.60;31.40;;;;;;5034718;28;20480;-75
2022/06/18 11:38:02;;;;;;;4.93;1.40;;;38.50;31.60;;;;;;5018524;28;20440;-67
2022/06/18 11:40:29;;;;;;;2.77;1.60;;;38.20;31.90;;;;;;5017557;28;20449;-68
2022/06/18 11:42:59;;;;;;;2.70;1.50;;;38.20;33.20;;;;;;5017510;28;20480;-68
2022/06/18 11:45:44;;;;;;;2.10;1.60;;;38.10;32.90;;;;;;5017315;28;20448;-67
2022/06/18 11:48:22;;;;;;;3.17;1.70;;;38.00;32.70;;;;;;5017207;28;20543;-67
2022/06/18 11:51:01;;;;;;;2.30;1.20;;;37.90;33.90;;;;;;5017056;28;20468;-67
2022/06/18 11:53:35;;;;;;;2.33;1.33;;;37.90;32.50;;;;;;5017109;28;20444;-68
2022/06/18 11:56:07;;;;;;;4.60;1.70;;;37.80;31.90;;;;;;5017152;28;20463;-68
2022/06/18 11:58:41;;;;;;;7.53;1.60;;;37.30;32.80;;;;;;5017451;28;20487;-67
2022/06/18 12:01:21;;;;;;;3.83;1.80;;;37.10;33.50;;;;;;5017469;28;20491;-67
2022/06/18 12:03:52;;;;;;;1.90;1.70;;;37.20;33.60;;;;;;5017097;28;20774;-68
2022/06/18 12:06:26;;;;;;;2.47;1.87;;;37.20;33.30;;;;;;5016796;28;20432;-67
2022/06/18 12:08:54;;;;;;;4.73;1.70;;;36.90;32.90;;;;;;5016993;28;20437;-68
2022/06/18 12:11:37;;;;;;;2.40;2.10;;;36.70;34.00;;;;;;5016311;28;20475;-68
2022/06/18 12:14:10;;;;;;;6.70;1.90;;;36.80;34.40;;;;;;5016789;28;20440;-67
2022/06/18 12:16:42;;;;;;;3.33;2.00;;;36.90;34.00;;;;;;5016760;28;20445;-67
2022/06/18 12:19:15;;;;;;;9.13;1.93;;;36.90;34.60;;;;;;5016981;28;20436;-68
2022/06/18 12:21:48;;;;;;;5.23;2.30;;;36.80;34.70;;;;;;5016583;28;20480;-68
2022/06/18 12:24:24;;;;;;;4.53;2.53;;;36.90;34.70;;;;;;5016710;28;20492;-68
2022/06/18 12:26:58;;;;;;;7.60;2.17;;;36.80;33.30;;;;;;5016506;28;20585;-68
2022/06/18 12:29:47;;;;;;;3.80;2.10;;;36.90;34.10;;;;;;5017028;28;20440;-67
2022/06/18 12:32:25;;;;;;;3.90;2.27;;;37.10;35.20;;;;;;5016302;28;20476;-68
2022/06/18 12:35:03;;;;;;;7.87;2.57;;;37.10;34.30;;;;;;5016095;28;20831;-68
2022/06/18 12:37:41;;;;;;;4.40;2.20;;;37.20;35.10;;;;;;5016380;28;20447;-67
2022/06/18 12:40:28;;;;;;;10.57;2.00;;;37.10;34.40;;;;;;5016486;28;20440;-68
2022/06/18 12:43:00;;;;;;;8.70;3.03;;;37.10;36.10;;;;;;5016411;28;20519;-68
2022/06/18 12:45:36;;;;;;;7.60;2.67;;;36.80;35.30;;;;;;5016128;28;20444;-68
2022/06/18 12:48:09;;;;;;;5.73;2.17;;;36.60;35.20;;;;;;5016539;28;20448;-68
2022/06/18 12:50:46;;;;;;;8.00;2.77;;;36.60;35.50;;;;;;5015886;28;20983;-68
2022/06/18 12:53:30;;;;;;;6.70;2.63;;;36.50;34.80;;;;;;5016377;28;20440;-68
2022/06/18 12:56:04;;;;;;;11.00;3.67;;;36.50;35.30;;;;;;5016201;28;20464;-67
2022/06/18 12:58:39;;;;;;;8.80;3.53;;;36.60;35.40;;;;;;5016436;28;20480;-67
2022/06/18 13:01:12;;;;;;;7.37;3.00;;;36.40;35.20;;;;;;5016020;28;20519;-67
2022/06/18 13:03:58;;;;;;;8.43;2.77;;;36.30;36.40;;;;;;5015903;28;20448;-67
2022/06/18 13:06:36;;;;;;;10.23;3.00;;;36.40;35.50;;;;;;5015763;28;20437;-67
2022/06/18 13:09:16;;;;;;;9.80;3.50;;;36.60;36.40;;;;;;5015602;28;20440;-67
2022/06/18 13:11:55;;;;;;;10.07;3.63;;;36.70;36.20;;;;;;5015735;28;20476;-67
2022/06/18 13:14:37;;;;;;;10.93;3.17;;;36.90;37.40;;;;;;5015881;28;20437;-67
2022/06/18 13:17:09;;;;;;;8.30;2.70;;;37.10;36.10;;;;;;5015462;28;20474;-67
2022/06/18 13:19:42;;;;;;;8.90;2.90;;;37.30;37.30;;;;;;5015501;28;20440;-67
2022/06/18 13:22:10;;;;;;;10.90;3.40;;;37.30;36.50;;;;;;5015286;28;20476;-67
2022/06/18 13:30:23;;;;;;;8.93;3.80;;;37.00;36.90;;;;;;5015398;28;20487;-67
2022/06/18 13:32:55;;;;;;;8.97;3.70;;;36.90;36.10;;;;;;5015307;28;20440;-67
2022/06/18 13:35:32;;;;;;;12.50;3.93;;;37.00;37.80;;;;;;5014776;28;20819;-67
2022/06/18 13:38:09;;;;;;;12.30;3.43;;;37.10;37.20;;;;;;5015824;28;20451;-67
2022/06/18 13:40:40;;;;;;;12.57;3.50;;;36.80;36.70;;;;;;5015102;28;20472;-67
2022/06/18 13:43:18;;;;;;;8.70;3.83;;;37.00;37.30;;;;;;5014777;28;20938;-67
2022/06/18 13:45:54;;;;;;;8.17;3.07;;;37.10;37.70;;;;;;5015056;28;20432;-67
2022/06/18 13:48:39;;;;;;;13.37;5.13;;;37.20;38.80;;;;;;5014721;28;20509;-67
2022/06/18 13:51:06;;;;;;;12.00;4.17;;;37.20;38.40;;;;;;5014653;28;20836;-68
2022/06/18 13:53:35;;;;;;;10.10;4.33;;;36.90;38.20;;;;;;5015100;28;20460;-67
2022/06/18 13:56:16;;;;;;;9.23;3.83;;;36.90;39.10;;;;;;5015001;28;20483;-67
2022/06/18 13:58:51;;;;;;;9.60;3.60;;;36.80;39.30;;;;;;5015495;28;20432;-67
2022/06/18 14:01:20;;;;;;;10.00;3.67;;;36.70;39.30;;;;;;5015013;28;20488;-67
2022/06/18 14:03:49;;;;;;;10.63;3.90;;;36.40;39.20;;;;;;5014931;28;20804;-67
2022/06/18 14:06:19;;;;;;;8.70;3.27;;;36.40;39.20;;;;;;5014795;28;20958;-67
2022/06/18 14:08:50;;;;;;;15.03;3.20;;;36.50;40.20;;;;;;5015169;28;20857;-67
2022/06/18 14:11:33;;;;;;;9.73;4.30;;;36.40;37.50;;;;;;5015132;28;20463;-67
2022/06/18 14:14:04;;;;;;;9.60;3.80;;;36.30;39.00;;;;;;5015069;28;20447;-67
2022/06/18 14:16:35;;;;;;;8.53;3.77;;;36.10;39.80;;;;;;5014984;28;20464;-67
2022/06/18 14:19:14;;;;;;;7.50;3.87;;;36.20;40.20;;;;;;5015252;28;20483;-68
2022/06/18 14:21:42;;;;;;;15.80;3.87;;;36.20;40.50;;;;;;5014812;28;20478;-68
2022/06/18 14:24:10;;;;;;;10.13;3.80;;;36.10;40.30;;;;;;5022266;28;20463;-68
2022/06/18 14:26:44;;;;;;;7.13;4.00;;;36.30;40.10;;;;;;5024365;28;20459;-68
2022/06/18 14:29:15;;;;;;;14.43;3.60;;;36.20;40.00;;;;;;5017943;28;20436;-69
2022/06/18 14:31:53;;;;;;;13.97;4.47;;;36.40;40.70;;;;;;5016236;28;20476;-69
2022/06/18 14:34:29;;;;;;;8.30;3.70;;;36.50;40.90;;;;;;5014849;28;20444;-69
2022/06/18 14:37:03;;;;;;;10.63;4.20;;;36.50;40.60;;;;;;5015043;28;20459;-74
2022/06/18 14:39:39;;;;;;;8.90;3.63;;;36.60;40.40;;;;;;5014516;28;20440;-73
2022/06/18 14:42:13;;;;;;;13.53;4.13;;;36.50;41.10;;;;;;5014386;28;20472;-73
2022/06/18 14:45:13;;;;;;;12.13;4.13;;;36.60;40.80;;;;;;5014369;28;20515;-70
2022/06/18 14:48:18;;;;;;;11.43;4.00;;;36.40;41.70;;;;;;5014363;28;20429;-68
2022/06/18 14:51:27;;;;;;;11.83;3.90;;;36.40;41.30;;;;;;5014226;28;20468;-68
2022/06/18 14:54:21;;;;;;;10.53;3.43;;;36.40;41.30;;;;;;5013923;28;20432;-69
2022/06/18 14:57:13;;;;;;;10.40;3.37;;;36.50;40.80;;;;;;5014224;28;20843;-68
2022/06/18 15:00:16;;;;;;;8.50;3.83;;;36.50;41.00;;;;;;5014228;28;20437;-68
2022/06/18 15:02:46;;;;;;;12.07;4.70;;;36.40;41.60;;;;;;4973204;28;20460;-68
2022/06/18 15:05:23;;;;;;;6.90;4.27;;;36.30;40.80;;;;;;5014418;28;20439;-68
2022/06/18 15:07:50;;;;;;;12.60;4.77;;;36.40;40.40;;;;;;5014075;28;20443;-68
2022/06/18 15:10:22;;;;;;;9.90;4.13;;;36.40;41.50;;;;;;5018261;28;20452;-68
2022/06/18 15:12:50;;;;;;;9.00;3.70;;;36.40;40.30;;;;;;5027182;28;20495;-69
2022/06/18 15:15:23;;;;;;;11.27;4.50;;;36.20;40.20;;;;;;5018328;28;20519;-69
2022/06/18 15:17:59;;;;;;;14.97;4.97;;;36.20;41.40;;;;;;5014465;28;20439;-68
2022/06/18 15:20:50;;;;;;;11.47;3.73;;;36.10;41.10;;;;;;5013670;28;20982;-68
2022/06/18 15:23:32;;;;;;;14.10;3.97;;;36.10;41.10;;;;;;5014017;28;20440;-68
2022/06/18 15:26:06;;;;;;;16.60;4.70;;;36.10;40.10;;;;;;5013730;28;20443;-68
2022/06/18 15:28:38;;;;;;;11.07;4.30;;;35.90;40.30;;;;;;5013707;28;20440;-67
2022/06/18 15:31:29;;;;;;;12.53;4.20;;;35.80;40.00;;;;;;5013213;28;20990;-68
2022/06/18 15:33:56;;;;;;;13.67;5.70;;;35.90;40.50;;;;;;5014437;28;20441;-68
2022/06/18 15:36:27;;;;;;;10.70;4.83;;;35.80;41.00;;;;;;5013437;28;20553;-69
2022/06/18 15:39:00;;;;;;;15.50;5.33;;;35.70;41.00;;;;;;5014623;28;20436;-68
2022/06/18 15:41:35;;;;;;;11.80;5.00;;;35.80;42.10;;;;;;5013516;28;20487;-68
2022/06/18 15:44:02;;;;;;;8.63;5.70;;;35.90;42.10;;;;;;5013507;28;20440;-68
2022/06/18 15:46:30;;;;;;;18.37;6.20;;;36.00;41.80;;;;;;5014304;28;20495;-68
2022/06/18 15:49:02;;;;;;;17.30;14.13;;;36.00;41.20;;;;;;5017242;28;20503;-68
2022/06/18 15:51:32;;;;;;;8.20;5.40;;;36.10;41.20;;;;;;5017114;28;21002;-68
2022/06/18 15:54:02;;;;;;;11.53;5.17;;;36.10;40.40;;;;;;5017465;28;20816;-68
2022/06/18 15:56:34;;;;;;;15.73;7.10;;;36.00;39.60;;;;;;5017018;28;20844;-68
2022/06/18 15:59:02;;;;;;;16.03;3.67;;;36.00;40.10;;;;;;5016839;28;20907;-68
2022/06/18 16:01:30;;;;;;;9.37;3.60;;;36.00;39.90;;;;;;5016612;28;20487;-68
2022/06/18 16:03:58;;;;;;;14.97;6.73;;;36.00;40.00;;;;;;5016989;28;20479;-68
2022/06/18 16:06:25;;;;;;;16.07;5.43;;;35.90;40.80;;;;;;5017052;28;20452;-68
2022/06/18 16:09:14;;;;;;;22.43;5.03;;;35.70;40.30;;;;;;5017460;28;20966;-68
2022/06/18 16:11:43;;;;;;;14.18;4.15;;;35.70;39.80;;;;;;5015779;28;20545;-68
2022/06/18 16:14:26;;;;;;;15.37;4.93;;;35.60;40.30;;;;;;5016559;28;20204;-69
2022/06/18 16:16:57;;;;;;;26.77;9.27;;;35.50;39.70;;;;;;5016383;28;20468;-68
2022/06/18 16:19:25;;;;;;;18.03;7.90;;;35.50;39.50;;;;;;5016685;28;20527;-68
2022/06/18 16:21:54;;;;;;;20.13;7.37;;;35.50;39.40;;;;;;5016251;28;20547;-68
2022/06/18 16:24:26;;;;;;;18.73;5.30;;;35.50;38.90;;;;;;5016331;28;20971;-69
2022/06/18 16:26:55;;;;;;;14.50;3.87;;;35.60;39.40;;;;;;5016617;28;20444;-70
2022/06/18 16:29:24;;;;;;;10.70;3.97;;;35.60;39.50;;;;;;5016462;28;20456;-68
2022/06/18 16:31:52;;;;;;;19.37;4.70;;;35.70;39.40;;;;;;5016123;28;20476;-68
2022/06/18 16:34:23;;;;;;;16.60;5.17;;;35.70;39.70;;;;;;5017357;28;20441;-68
2022/06/18 16:37:17;;;;;;;38.13;22.23;;;35.50;39.60;;;;;;5016349;28;20515;-68
2022/06/18 16:39:47;;;;;;;15.73;5.90;;;35.50;40.50;;;;;;5016394;28;20451;-67
2022/06/18 16:42:35;;;;;;;20.43;5.47;;;35.50;39.40;;;;;;5016303;28;20468;-69
2022/06/18 16:45:38;;;;;;;13.40;7.30;;;35.40;39.90;;;;;;5016085;28;20459;-68
2022/06/18 16:48:16;;;;;;;11.00;5.30;;;35.50;40.60;;;;;;5016074;28;20523;-68
2022/06/18 16:50:49;;;;;;;20.37;8.07;;;35.40;41.00;;;;;;5016289;28;20558;-68
2022/06/18 16:53:39;;;;;;;14.70;8.10;;;35.40;41.30;;;;;;5016135;28;20524;-68
2022/06/18 16:56:10;;;;;;;15.63;6.30;;;35.50;41.40;;;;;;5015663;28;20862;-71
2022/06/18 16:58:37;;;;;;;19.83;10.37;;;35.50;41.10;;;;;;5014753;28;20456;-72
2022/06/18 17:01:04;;;;;;;14.77;7.83;;;35.50;41.80;;;;;;5015522;28;20484;-72
2022/06/18 17:03:31;;;;;;;18.93;5.73;;;35.50;41.90;;;;;;5015735;28;20452;-72
2022/06/18 17:05:58;;;;;;;19.13;4.90;;;35.40;41.80;;;;;;5015803;28;20859;-68
2022/06/18 17:08:26;;;;;;;21.00;6.17;;;35.20;41.20;;;;;;5015766;28;20452;-68
2022/06/18 17:10:54;;;;;;;16.43;5.40;;;35.10;41.90;;;;;;5015926;28;20476;-68
2022/06/18 17:13:25;;;;;;;21.53;4.87;;;35.00;41.60;;;;;;5015984;28;20457;-68
2022/06/18 17:15:52;;;;;;;19.03;5.93;;;34.80;42.10;;;;;;5015159;28;20465;-68
2022/06/18 17:18:19;;;;;;;12.47;4.37;;;34.80;42.00;;;;;;5015017;28;20452;-68
2022/06/18 17:20:48;;;;;;;21.83;5.07;;;34.70;41.70;;;;;;5015645;28;20479;-68
2022/06/18 17:23:18;;;;;;;30.80;5.43;;;34.60;42.00;;;;;;5015211;28;20940;-68